Phyllis, Kentucky
Current Conditions -  °F | °C
As of 9:55 PM on Monday 22 Dec 2014 (Local Time) from KPBX Reporting Station
Clear Clear  
Wind Chill: 51°   Ceiling: Unl
Heat Index: 51°   Visibility: 10mi
Dew Point: 38°   Wind: 13mph
Humidity: 62%   Direction: 130°SE
Pressure: 29.83"   Gusts: 20mph
Location:  37.44°N, 82.34°W
Report Text: KPBX 230255Z AUTO 13011G17KT 10SM CLR 11/04 A2983 RMK AO2 T01050036
Loading
Personal Weather Stations






























Interactive Weather Map New forecast layout! Learn more

10-Day Weather Forecast

Advertisements
Track Severe Weather on mobile